createdAt,value
2019-01-17T00:02:39.496Z,87.69
2019-01-17T00:05:27.002Z,88.12
2019-01-17T00:08:13.667Z,87.73
2019-01-17T00:10:56.717Z,88.39
2019-01-17T00:13:36.022Z,88.22
2019-01-17T00:16:29.441Z,88.22
2019-01-17T00:19:16.394Z,88.45
2019-01-17T00:22:03.409Z,88.44
2019-01-17T00:24:56.728Z,88.16
2019-01-17T00:27:43.480Z,88.08
2019-01-17T00:30:31.162Z,88.13
2019-01-17T00:33:25.278Z,88.22
2019-01-17T00:36:19.534Z,88.59
2019-01-17T00:39:06.637Z,87.10
2019-01-17T00:42:02.322Z,87.22
2019-01-17T00:44:56.426Z,87.79
2019-01-17T00:47:45.243Z,87.65
2019-01-17T00:50:28.039Z,87.81
2019-01-17T00:53:14.804Z,88.46
2019-01-17T00:56:03.150Z,87.56
2019-01-17T00:58:50.068Z,88.12
2019-01-17T01:01:38.322Z,87.43
2019-01-17T01:04:29.323Z,87.01
2019-01-17T01:07:19.093Z,87.73
2019-01-17T01:10:00.677Z,87.38
2019-01-17T01:12:47.164Z,88.16
2019-01-17T01:15:31.205Z,87.59
2019-01-17T01:18:28.293Z,86.70
2019-01-17T01:21:24.401Z,86.85
2019-01-17T01:24:15.606Z,87.81
2019-01-17T01:27:03.844Z,88.24
2019-01-17T01:29:52.314Z,86.42
2019-01-17T01:32:49.591Z,86.44
2019-01-17T01:35:37.708Z,86.98
2019-01-17T01:38:35.042Z,86.21
2019-01-17T01:41:30.351Z,86.64
2019-01-17T01:44:24.490Z,86.71
2019-01-17T01:47:08.572Z,86.80
2019-01-17T01:50:03.947Z,87.44
2019-01-17T01:52:43.220Z,87.39
2019-01-17T01:55:12.332Z,87.83
2019-01-17T01:57:41.493Z,87.52
2019-01-17T02:00:11.171Z,88.48
2019-01-17T02:02:40.321Z,88.40
2019-01-17T02:05:09.617Z,87.82
2019-01-17T02:07:38.767Z,88.08
2019-01-17T02:10:08.871Z,88.70
2019-01-17T02:12:38.021Z,89.32
2019-01-17T02:15:07.155Z,88.66
2019-01-17T02:17:36.294Z,89.18
2019-01-17T02:20:07.739Z,89.72
2019-01-17T02:22:36.889Z,90.38
2019-01-17T02:25:07.009Z,91.10
2019-01-17T02:27:36.454Z,91.19
2019-01-17T02:30:06.188Z,91.62
2019-01-17T02:32:35.335Z,91.97
2019-01-17T02:35:04.464Z,92.04
2019-01-17T02:37:33.615Z,92.63
2019-01-17T02:40:02.760Z,92.32
2019-01-17T02:42:32.559Z,92.41
2019-01-17T02:45:01.815Z,93.38
2019-01-17T02:47:30.954Z,93.22
2019-01-17T02:50:00.230Z,92.48
2019-01-17T02:52:29.340Z,93.18
2019-01-17T02:54:58.424Z,92.92
2019-01-17T02:57:27.679Z,93.09
2019-01-17T02:59:56.783Z,93.42
2019-01-17T03:02:25.960Z,93.11
2019-01-17T03:04:55.060Z,92.96
2019-01-17T03:07:24.207Z,92.86
2019-01-17T03:09:53.676Z,93.61
2019-01-17T03:12:22.795Z,93.41
2019-01-17T03:14:51.925Z,93.78
2019-01-17T03:17:21.092Z,93.52
2019-01-17T03:19:50.181Z,94.46
2019-01-17T03:22:19.448Z,94.49
2019-01-17T03:24:48.924Z,94.89
2019-01-17T03:27:18.078Z,94.74
2019-01-17T03:29:47.491Z,94.86
2019-01-17T03:32:16.744Z,94.29
2019-01-17T03:34:45.909Z,93.48
2019-01-17T03:37:15.037Z,94.16
2019-01-17T03:39:44.306Z,93.32
2019-01-17T03:42:13.434Z,93.05
2019-01-17T03:44:42.792Z,93.65
2019-01-17T03:47:11.908Z,93.90
2019-01-17T03:49:41.125Z,94.38
2019-01-17T03:52:10.233Z,94.03
2019-01-17T03:54:39.366Z,94.70
2019-01-17T03:57:08.464Z,94.93
2019-01-17T03:59:37.600Z,95.16
2019-01-17T04:02:07.074Z,95.28
2019-01-17T04:04:36.393Z,95.70
2019-01-17T04:07:05.712Z,96.15
2019-01-17T04:09:34.887Z,96.67
2019-01-17T04:12:03.982Z,97.32
2019-01-17T04:14:33.108Z,97.10
2019-01-17T04:17:02.132Z,96.62
2019-01-17T04:19:31.266Z,97.35
2019-01-17T04:22:00.743Z,97.44
2019-01-17T04:24:29.897Z,97.81
2019-01-17T04:26:59.017Z,97.78
2019-01-17T04:29:28.154Z,98.15
2019-01-17T04:31:57.287Z,98.04
2019-01-17T04:34:26.445Z,97.44
2019-01-17T04:36:55.527Z,97.65
2019-01-17T04:39:24.657Z,97.39
2019-01-17T04:41:54.087Z,97.75
2019-01-17T04:44:23.258Z,97.61
2019-01-17T04:46:52.360Z,97.55
2019-01-17T04:49:21.538Z,97.88
2019-01-17T04:51:51.010Z,98.03
2019-01-17T04:54:20.457Z,97.68
2019-01-17T04:56:49.540Z,97.96
2019-01-17T04:59:18.669Z,98.08
2019-01-17T05:01:47.742Z,98.02
2019-01-17T05:04:16.868Z,98.39
2019-01-17T05:06:45.966Z,98.27
2019-01-17T05:09:15.139Z,98.05
2019-01-17T05:11:44.329Z,98.46
2019-01-17T05:14:13.647Z,98.90
2019-01-17T05:16:42.735Z,99.57
2019-01-17T05:19:11.861Z,99.35
2019-01-17T05:21:41.011Z,99.25
2019-01-17T05:24:10.149Z,99.40
2019-01-17T05:26:39.271Z,99.63
2019-01-17T05:29:08.423Z,99.78
2019-01-17T05:31:37.681Z,100.00
2019-01-17T05:34:06.818Z,100.00
2019-01-17T05:36:35.919Z,100.00
2019-01-17T05:39:07.808Z,100.00
2019-01-17T05:41:36.908Z,100.00
2019-01-17T05:44:06.055Z,100.00
2019-01-17T05:46:35.164Z,100.00
2019-01-17T05:49:06.562Z,100.00
2019-01-17T05:51:39.268Z,100.00
2019-01-17T05:54:11.953Z,100.00
2019-01-17T05:56:42.386Z,100.00
2019-01-17T05:59:11.574Z,100.00
2019-01-17T06:01:40.695Z,100.00
2019-01-17T06:04:09.847Z,100.00
2019-01-17T06:06:39.103Z,100.00
2019-01-17T06:09:11.991Z,100.00
2019-01-17T06:11:41.031Z,100.00
2019-01-17T06:14:10.930Z,100.00
2019-01-17T06:16:40.109Z,100.00
2019-01-17T06:19:09.216Z,100.00
2019-01-17T06:21:38.376Z,100.00
2019-01-17T06:24:07.844Z,100.00
2019-01-17T06:26:37.020Z,100.00
2019-01-17T06:29:06.277Z,100.00
2019-01-17T06:31:35.399Z,100.00
2019-01-17T06:34:04.590Z,100.00
2019-01-17T06:36:33.717Z,100.00
2019-01-17T06:39:03.661Z,100.00
2019-01-17T06:41:33.092Z,100.00
2019-01-17T06:44:02.194Z,100.00
2019-01-17T06:46:31.349Z,100.00
2019-01-17T06:49:01.303Z,100.00
2019-01-17T06:51:36.411Z,100.00
2019-01-17T06:54:05.761Z,100.00
2019-01-17T06:56:34.925Z,100.00
2019-01-17T06:59:04.135Z,100.00
2019-01-17T07:01:33.283Z,100.00
2019-01-17T07:04:02.395Z,100.00
2019-01-17T07:06:31.558Z,100.00
2019-01-17T07:09:00.699Z,100.00
2019-01-17T07:11:29.828Z,100.00
2019-01-17T07:13:59.105Z,100.00
2019-01-17T07:16:28.266Z,100.00
2019-01-17T07:18:57.593Z,100.00
2019-01-17T07:21:26.709Z,100.00
2019-01-17T07:23:55.886Z,100.00
2019-01-17T07:26:25.033Z,100.00
2019-01-17T07:28:54.193Z,100.00
2019-01-17T07:31:23.387Z,100.00
2019-01-17T07:33:52.481Z,100.00
2019-01-17T07:36:21.618Z,100.00
2019-01-17T07:38:50.728Z,100.00
2019-01-17T07:41:19.844Z,100.00
2019-01-17T07:43:49.036Z,100.00
2019-01-17T07:46:18.200Z,100.00
2019-01-17T07:48:47.314Z,100.00
2019-01-17T07:51:16.440Z,100.00
2019-01-17T07:53:45.545Z,100.00
2019-01-17T07:56:14.682Z,100.00
2019-01-17T07:58:43.775Z,100.00
2019-01-17T08:01:15.058Z,100.00
2019-01-17T08:03:43.813Z,100.00
2019-01-17T08:06:12.961Z,100.00
2019-01-17T08:08:42.486Z,100.00
2019-01-17T08:11:11.917Z,100.00
2019-01-17T08:13:41.139Z,100.00
2019-01-17T08:16:10.391Z,100.00
2019-01-17T08:18:39.491Z,100.00
2019-01-17T08:21:08.608Z,100.00
2019-01-17T08:23:37.784Z,100.00
2019-01-17T08:26:06.881Z,100.00
2019-01-17T08:28:36.005Z,100.00
2019-01-17T08:31:05.089Z,100.00
2019-01-17T08:33:34.212Z,100.00
2019-01-17T08:36:07.314Z,100.00
2019-01-17T08:38:36.492Z,100.00
2019-01-17T08:41:05.758Z,100.00
2019-01-17T08:43:34.944Z,100.00
2019-01-17T08:46:04.176Z,100.00
2019-01-17T08:48:33.304Z,100.00
2019-01-17T08:51:02.510Z,100.00
2019-01-17T08:53:31.659Z,100.00
2019-01-17T08:56:01.430Z,100.00
2019-01-17T08:58:30.690Z,100.00
2019-01-17T09:00:59.852Z,100.00
2019-01-17T09:03:28.970Z,100.00
2019-01-17T09:05:59.170Z,100.00
2019-01-17T09:08:28.434Z,100.00
2019-01-17T09:10:57.948Z,100.00
2019-01-17T09:13:27.179Z,100.00
2019-01-17T09:15:56.604Z,100.00
2019-01-17T09:18:25.903Z,100.00
2019-01-17T09:20:55.053Z,100.00
2019-01-17T09:23:24.171Z,100.00
2019-01-17T09:25:53.309Z,99.91
2019-01-17T09:28:22.479Z,99.87
2019-01-17T09:30:51.571Z,99.96
2019-01-17T09:33:20.692Z,99.75
2019-01-17T09:35:49.947Z,100.00
2019-01-17T09:38:19.239Z,99.64
2019-01-17T09:40:48.411Z,99.62
2019-01-17T09:43:17.556Z,98.77
2019-01-17T09:45:47.065Z,99.06
2019-01-17T09:48:16.250Z,99.62
2019-01-17T09:50:45.395Z,98.84
2019-01-17T09:53:14.652Z,98.83
2019-01-17T09:55:43.945Z,98.79
2019-01-17T09:58:13.070Z,98.72
2019-01-17T10:00:42.591Z,98.03
2019-01-17T10:03:11.862Z,97.96
2019-01-17T10:05:40.988Z,98.42
2019-01-17T10:08:10.227Z,98.86
2019-01-17T10:10:39.464Z,98.58
2019-01-17T10:13:08.653Z,98.47
2019-01-17T10:16:02.062Z,98.01
2019-01-17T10:19:06.234Z,98.20
2019-01-17T10:22:30.707Z,97.39
2019-01-17T10:25:40.967Z,97.54
2019-01-17T10:28:25.060Z,97.58
2019-01-17T10:31:38.651Z,97.12
2019-01-17T10:34:55.010Z,97.41
2019-01-17T10:37:50.875Z,96.98
2019-01-17T10:41:13.364Z,97.82
2019-01-17T10:44:16.042Z,97.68
2019-01-17T10:46:57.644Z,97.58
2019-01-17T10:49:57.695Z,97.07
2019-01-17T10:53:29.259Z,96.72
2019-01-17T10:56:41.560Z,96.52
2019-01-17T10:59:36.253Z,96.53
2019-01-17T11:02:33.414Z,96.19
2019-01-17T11:05:50.869Z,95.68
2019-01-17T11:09:04.879Z,94.86
2019-01-17T11:12:15.018Z,93.59
2019-01-17T11:15:22.848Z,94.27
2019-01-17T11:18:14.460Z,94.22
2019-01-17T11:21:30.405Z,94.22
2019-01-17T11:24:25.822Z,93.04
2019-01-17T11:27:31.963Z,92.24
2019-01-17T11:30:32.513Z,92.24
2019-01-17T11:33:19.725Z,90.80
2019-01-17T11:36:28.738Z,90.19
2019-01-17T11:39:21.557Z,88.09
2019-01-17T11:42:38.127Z,88.73
2019-01-17T11:45:29.855Z,85.48
2019-01-17T11:48:48.883Z,84.12
2019-01-17T11:51:43.472Z,84.27
2019-01-17T11:55:06.948Z,84.91
2019-01-17T11:58:08.733Z,83.27
2019-01-17T12:01:13.573Z,85.28
2019-01-17T12:04:17.555Z,83.08
2019-01-17T12:06:46.647Z,84.64
2019-01-17T12:09:15.831Z,81.84
2019-01-17T12:11:44.928Z,80.89
2019-01-17T12:14:14.053Z,82.35
2019-01-17T12:16:43.261Z,83.12
2019-01-17T12:19:12.817Z,84.81
2019-01-17T12:21:41.949Z,83.92
2019-01-17T12:24:11.162Z,82.53
2019-01-17T12:26:40.657Z,83.68
2019-01-17T12:29:09.781Z,80.38
2019-01-17T12:31:38.909Z,82.21
2019-01-17T12:34:07.991Z,84.22
2019-01-17T12:36:37.124Z,83.52
2019-01-17T12:39:09.374Z,83.25
2019-01-17T12:41:38.504Z,83.72
2019-01-17T12:44:07.638Z,84.44
2019-01-17T12:46:36.775Z,82.83
2019-01-17T12:49:05.898Z,82.14
2019-01-17T12:51:35.031Z,83.12
2019-01-17T12:54:04.540Z,81.01
2019-01-17T12:56:33.965Z,81.19
2019-01-17T12:59:02.982Z,82.63
2019-01-17T13:01:32.116Z,82.53
2019-01-17T13:04:01.213Z,81.62
2019-01-17T13:06:30.400Z,83.14
2019-01-17T13:08:59.538Z,82.80
2019-01-17T13:11:28.994Z,82.12
2019-01-17T13:13:58.161Z,83.28
2019-01-17T13:16:27.297Z,82.10
2019-01-17T13:18:56.435Z,83.29
2019-01-17T13:21:25.570Z,81.61
2019-01-17T13:23:54.671Z,83.27
2019-01-17T13:26:24.114Z,82.63
2019-01-17T13:28:53.284Z,82.84
2019-01-17T13:31:22.399Z,83.21
2019-01-17T13:33:51.664Z,84.57
2019-01-17T13:36:20.736Z,86.17
2019-01-17T13:38:49.983Z,85.57
2019-01-17T13:41:19.225Z,85.68
2019-01-17T13:43:48.364Z,85.88
2019-01-17T13:46:17.578Z,86.81
2019-01-17T13:48:46.777Z,87.40
2019-01-17T13:51:15.989Z,87.95
2019-01-17T13:53:45.108Z,88.37
2019-01-17T13:56:14.250Z,88.85
2019-01-17T13:58:43.355Z,89.39
2019-01-17T14:01:12.479Z,89.95
2019-01-17T14:03:41.650Z,90.43
2019-01-17T14:06:10.797Z,91.15
2019-01-17T14:08:40.027Z,92.87
2019-01-17T14:11:09.193Z,93.50
2019-01-17T14:13:38.461Z,93.79
2019-01-17T14:16:08.325Z,94.31
2019-01-17T14:18:37.550Z,94.66
2019-01-17T14:21:06.642Z,94.72
2019-01-17T14:23:35.803Z,94.85
2019-01-17T14:26:04.921Z,95.64
2019-01-17T14:28:34.061Z,95.74
2019-01-17T14:31:03.186Z,95.83
2019-01-17T14:33:32.359Z,96.10
2019-01-17T14:36:01.443Z,96.23
2019-01-17T14:38:30.537Z,96.27
2019-01-17T14:40:59.783Z,95.50
2019-01-17T14:43:29.004Z,95.36
2019-01-17T14:45:58.157Z,96.92
2019-01-17T14:48:27.239Z,99.37
2019-01-17T14:50:56.596Z,100.00
2019-01-17T14:53:25.934Z,100.00
2019-01-17T14:55:54.984Z,100.00
2019-01-17T14:58:24.089Z,100.00
2019-01-17T15:00:53.287Z,100.00
2019-01-17T15:03:22.472Z,100.00
2019-01-17T15:05:51.617Z,100.00
2019-01-17T15:08:20.994Z,100.00
2019-01-17T15:10:52.800Z,100.00
2019-01-17T15:13:21.910Z,100.00
2019-01-17T15:15:51.023Z,100.00
2019-01-17T15:18:20.065Z,100.00
2019-01-17T15:20:49.158Z,100.00
2019-01-17T15:23:18.275Z,100.00
2019-01-17T15:25:47.412Z,100.00
2019-01-17T15:28:16.495Z,100.00
2019-01-17T15:30:45.552Z,100.00
2019-01-17T15:33:14.651Z,100.00
2019-01-17T15:35:44.248Z,100.00
2019-01-17T15:38:13.349Z,100.00
2019-01-17T15:40:42.393Z,100.00
2019-01-17T15:43:11.518Z,100.00
2019-01-17T15:45:40.659Z,100.00
2019-01-17T15:48:09.776Z,100.00
2019-01-17T15:50:39.014Z,100.00
2019-01-17T15:53:08.177Z,100.00
2019-01-17T15:55:37.475Z,100.00
2019-01-17T15:58:06.600Z,100.00
2019-01-17T16:00:35.693Z,100.00
2019-01-17T16:03:04.772Z,100.00
2019-01-17T16:05:34.105Z,100.00
2019-01-17T16:08:03.245Z,100.00
2019-01-17T16:10:32.306Z,100.00
2019-01-17T16:13:01.344Z,100.00
2019-01-17T16:15:32.159Z,100.00
2019-01-17T16:18:05.103Z,100.00
2019-01-17T16:20:38.118Z,100.00
2019-01-17T16:23:07.252Z,100.00
2019-01-17T16:25:42.453Z,100.00
2019-01-17T16:28:17.365Z,100.00
2019-01-17T16:30:46.547Z,100.00
2019-01-17T16:33:15.706Z,100.00
2019-01-17T16:35:44.865Z,100.00
2019-01-17T16:38:14.119Z,100.00
2019-01-17T16:40:43.216Z,100.00
2019-01-17T16:43:12.283Z,100.00
2019-01-17T16:45:41.441Z,100.00
2019-01-17T16:48:10.622Z,100.00
2019-01-17T16:50:39.829Z,100.00
2019-01-17T16:53:08.913Z,100.00
2019-01-17T16:55:38.361Z,100.00
2019-01-17T16:58:07.766Z,100.00
2019-01-17T17:00:42.194Z,100.00
2019-01-17T17:03:11.287Z,100.00
2019-01-17T17:05:40.776Z,100.00
2019-01-17T17:08:09.840Z,100.00
2019-01-17T17:10:40.313Z,100.00
2019-01-17T17:13:09.531Z,100.00
2019-01-17T17:15:38.633Z,100.00
2019-01-17T17:18:07.723Z,100.00
2019-01-17T17:20:36.885Z,100.00
2019-01-17T17:23:06.118Z,100.00
2019-01-17T17:25:35.222Z,100.00
2019-01-17T17:28:04.506Z,100.00
2019-01-17T17:30:33.689Z,100.00
2019-01-17T17:33:02.919Z,100.00
2019-01-17T17:35:31.926Z,100.00
2019-01-17T17:38:02.213Z,100.00
2019-01-17T17:40:31.728Z,100.00
2019-01-17T17:43:00.793Z,99.87
2019-01-17T17:45:30.634Z,99.46
2019-01-17T17:48:01.552Z,98.72
2019-01-17T17:50:30.665Z,98.59
2019-01-17T17:52:59.798Z,98.44
2019-01-17T17:55:28.986Z,98.33
2019-01-17T17:58:02.197Z,98.83
2019-01-17T18:00:37.080Z,99.03
2019-01-17T18:03:06.356Z,98.55
2019-01-17T18:05:38.382Z,98.18
2019-01-17T18:08:14.895Z,98.25
2019-01-17T18:10:44.134Z,98.28
2019-01-17T18:13:13.234Z,99.42
2019-01-17T18:15:42.633Z,100.00
2019-01-17T18:18:21.712Z,100.00
2019-01-17T18:20:52.886Z,100.00
2019-01-17T18:23:21.952Z,100.00
2019-01-17T18:25:51.490Z,99.99
2019-01-17T18:28:20.614Z,99.96
2019-01-17T18:30:51.368Z,100.00
2019-01-17T18:33:23.987Z,100.00
2019-01-17T18:35:53.576Z,99.76
2019-01-17T18:38:32.605Z,99.94
2019-01-17T18:41:01.798Z,100.00
2019-01-17T18:43:33.649Z,100.00
2019-01-17T18:46:06.156Z,100.00
2019-01-17T18:48:44.262Z,100.00
2019-01-17T18:51:31.471Z,100.00
2019-01-17T18:54:00.555Z,100.00
2019-01-17T18:56:31.665Z,100.00
2019-01-17T18:59:02.401Z,100.00
2019-01-17T19:01:31.627Z,100.00
2019-01-17T19:04:00.703Z,99.75
2019-01-17T19:06:32.668Z,99.16
2019-01-17T19:09:01.880Z,99.08
2019-01-17T19:11:31.241Z,98.59
2019-01-17T19:14:00.310Z,98.99
2019-01-17T19:16:34.800Z,99.23
2019-01-17T19:19:03.963Z,99.51
2019-01-17T19:21:33.526Z,99.73
2019-01-17T19:24:02.658Z,98.96
2019-01-17T19:26:32.936Z,98.04
2019-01-17T19:29:03.839Z,97.65
2019-01-17T19:31:33.071Z,97.16
2019-01-17T19:34:02.178Z,97.52
2019-01-17T19:36:32.690Z,98.05
2019-01-17T19:39:04.768Z,97.05
2019-01-17T19:41:36.891Z,97.58
2019-01-17T19:44:08.999Z,97.44
2019-01-17T19:46:38.190Z,97.18
2019-01-17T19:49:07.257Z,96.25
2019-01-17T19:51:39.659Z,96.84
2019-01-17T19:54:11.499Z,97.31
2019-01-17T19:56:41.184Z,97.49
2019-01-17T19:59:10.167Z,96.42
2019-01-17T20:01:44.096Z,96.02
2019-01-17T20:04:13.897Z,96.55
2019-01-17T20:06:43.549Z,96.23
2019-01-17T20:09:15.787Z,96.08
2019-01-17T20:11:45.503Z,95.88
2019-01-17T20:14:15.081Z,95.19
2019-01-17T20:16:44.391Z,96.21
2019-01-17T20:19:13.536Z,96.46
2019-01-17T20:21:42.710Z,96.90
2019-01-17T20:24:15.257Z,97.01
2019-01-17T20:26:44.347Z,96.63
2019-01-17T20:29:17.066Z,96.55
2019-01-17T20:31:51.177Z,96.54
2019-01-17T20:34:24.014Z,96.26
2019-01-17T20:36:53.224Z,96.59
2019-01-17T20:39:22.277Z,96.75
2019-01-17T20:41:51.448Z,97.41
2019-01-17T20:44:21.551Z,96.12
2019-01-17T20:46:50.691Z,96.35
2019-01-17T20:49:19.926Z,96.85
2019-01-17T20:51:49.070Z,96.75
2019-01-17T20:54:18.174Z,96.86
2019-01-17T20:56:47.311Z,96.63
2019-01-17T20:59:16.552Z,96.78
2019-01-17T21:02:03.669Z,97.30
2019-01-17T21:04:32.752Z,97.86
2019-01-17T21:07:05.667Z,98.47
2019-01-17T21:09:32.834Z,98.96
2019-01-17T21:12:11.275Z,98.94
2019-01-17T21:14:41.474Z,99.39
2019-01-17T21:17:10.628Z,99.31
2019-01-17T21:19:41.888Z,99.46
2019-01-17T21:22:15.436Z,99.59
2019-01-17T21:24:47.641Z,99.40
2019-01-17T21:27:16.906Z,99.78
2019-01-17T21:29:49.020Z,99.74
2019-01-17T21:32:18.102Z,100.00
2019-01-17T21:34:47.515Z,100.00
2019-01-17T21:37:16.637Z,99.79
2019-01-17T21:39:45.630Z,99.48
2019-01-17T21:42:15.598Z,99.70
2019-01-17T21:44:44.601Z,99.64
2019-01-17T21:47:13.736Z,98.45
2019-01-17T21:49:43.084Z,97.64
2019-01-17T21:52:12.164Z,97.80
2019-01-17T21:54:41.278Z,97.48
2019-01-17T21:57:10.468Z,97.73
2019-01-17T21:59:39.599Z,97.86
2019-01-17T22:02:08.713Z,98.18
2019-01-17T22:04:41.482Z,98.06
2019-01-17T22:07:10.654Z,97.55
2019-01-17T22:09:39.972Z,97.00
2019-01-17T22:12:09.073Z,96.36
2019-01-17T22:14:38.881Z,96.58
2019-01-17T22:17:08.041Z,96.23
2019-01-17T22:19:46.330Z,96.84
2019-01-17T22:22:15.374Z,96.49
2019-01-17T22:24:44.474Z,96.52
2019-01-17T22:27:13.947Z,95.74
2019-01-17T22:29:47.865Z,95.74
2019-01-17T22:32:17.303Z,95.81
2019-01-17T22:34:46.409Z,95.73
2019-01-17T22:37:15.604Z,95.46
2019-01-17T22:39:44.754Z,95.55
2019-01-17T22:42:14.024Z,95.74
2019-01-17T22:44:43.122Z,95.99
2019-01-17T22:47:12.360Z,95.92
2019-01-17T22:49:41.444Z,95.39
2019-01-17T22:52:10.645Z,95.64
2019-01-17T22:54:39.667Z,95.68
2019-01-17T22:57:08.783Z,95.74
2019-01-17T22:59:37.901Z,95.50
2019-01-17T23:02:07.025Z,95.79
2019-01-17T23:04:36.071Z,96.01
2019-01-17T23:07:05.628Z,95.77
2019-01-17T23:09:34.850Z,95.86
2019-01-17T23:12:04.236Z,96.20
2019-01-17T23:14:33.460Z,96.16
2019-01-17T23:17:02.534Z,96.82
2019-01-17T23:19:31.825Z,96.22
2019-01-17T23:22:00.876Z,96.09
2019-01-17T23:24:30.171Z,95.85
2019-01-17T23:26:59.111Z,95.97
2019-01-17T23:29:28.165Z,95.39
2019-01-17T23:32:03.315Z,95.13
2019-01-17T23:34:32.596Z,95.33
2019-01-17T23:37:01.616Z,95.44
2019-01-17T23:39:30.618Z,95.54
2019-01-17T23:42:01.778Z,95.99
2019-01-17T23:44:30.845Z,95.87
2019-01-17T23:46:59.938Z,96.33
2019-01-17T23:49:29.020Z,96.11
2019-01-17T23:54:40.278Z,96.91
2019-01-17T23:57:09.446Z,97.55
2019-01-17T23:59:38.568Z,98.03
